SKAR/AXM METAR and TAF weather

Enter ICAO airport designator
Station Type Date Time Source
SKAR METAR 2019/06/17 15:00 UTC NOAA

SKAR 171500Z 00000KT 9999 BKN025 23/19 A3003


Station Type Date Time Source
SKAR Decoded METAR 2019/06/17 15:00 UTC NOAA

Armenia / El Eden, Colombia (SKAR) 04-30N 075-43W 1219M
Jun 17, 2019 - 11:00 AM EDT / 2019.06.17 1500 UTC
Wind: Calm:0
Visibility: greater than 7 mile(s):0
Sky conditions: mostly cloudy
Temperature: 73 F (23 C)
Dew Point: 66 F (19 C)
Relative Humidity: 78%
Pressure (altimeter): 30.03 in. Hg (1016 hPa)
ob: SKAR 171500Z 00000KT 9999 BKN025 23/19 A3003
cycle: 15

Station Type Date Time Source
SKAR TAF 2017/06/20 18:24 UTC NOAA

TAF TAF SKAR 201700Z 2018/2118 20006KT 9999 SCT023 BKN090
TEMPO 2021/2023 8000 VCSH SCT018TCU PROB40
TEMPO 2023/2101 7000 DZRA SCT017CB
BECMG 2101/2102 VRB02KT
TEMPO 2111/2113 7000 VCFG TX28/2019Z TN17/2111Z

Example: see airport list